sensor_id;sensor_type;location;lat;lon;timestamp;pressure;altitude;pressure_sealevel;temperature;humidity
22257;BME280;11297;42.686;23.374;2023-03-13T00:01:21;95234.13;;;6.13;44.20
22257;BME280;11297;42.686;23.374;2023-03-13T00:03:46;95230.44;;;6.24;43.74
22257;BME280;11297;42.686;23.374;2023-03-13T00:06:13;95227.06;;;6.28;43.85
22257;BME280;11297;42.686;23.374;2023-03-13T00:08:38;95236.31;;;6.34;43.58
22257;BME280;11297;42.686;23.374;2023-03-13T00:11:05;95233.22;;;6.37;43.67
22257;BME280;11297;42.686;23.374;2023-03-13T00:13:31;95222.34;;;6.40;43.13
22257;BME280;11297;42.686;23.374;2023-03-13T00:16:01;95235.25;;;6.45;43.43
22257;BME280;11297;42.686;23.374;2023-03-13T00:18:27;95233.16;;;6.47;43.37
22257;BME280;11297;42.686;23.374;2023-03-13T00:21:00;95234.19;;;6.51;43.08
22257;BME280;11297;42.686;23.374;2023-03-13T00:23:26;95241.91;;;6.46;43.00
22257;BME280;11297;42.686;23.374;2023-03-13T00:26:05;95244.53;;;6.41;43.10
22257;BME280;11297;42.686;23.374;2023-03-13T00:28:32;95242.59;;;6.23;43.65
22257;BME280;11297;42.686;23.374;2023-03-13T00:33:27;95244.97;;;6.10;43.71
22257;BME280;11297;42.686;23.374;2023-03-13T00:35:57;95243.72;;;6.03;44.15
22257;BME280;11297;42.686;23.374;2023-03-13T00:38:22;95247.38;;;5.87;44.44
22257;BME280;11297;42.686;23.374;2023-03-13T00:40:47;95246.91;;;5.75;44.88
22257;BME280;11297;42.686;23.374;2023-03-13T00:43:13;95236.59;;;5.75;44.77
22257;BME280;11297;42.686;23.374;2023-03-13T00:45:38;95253.06;;;5.84;44.55
22257;BME280;11297;42.686;23.374;2023-03-13T00:48:04;95244.34;;;5.80;44.49
22257;BME280;11297;42.686;23.374;2023-03-13T00:50:29;95250.72;;;5.92;44.57
22257;BME280;11297;42.686;23.374;2023-03-13T00:52:54;95229.94;;;5.74;44.78
22257;BME280;11297;42.686;23.374;2023-03-13T00:55:20;95244.34;;;5.75;45.02
22257;BME280;11297;42.686;23.374;2023-03-13T00:57:45;95239.19;;;5.70;45.03
22257;BME280;11297;42.686;23.374;2023-03-13T01:00:11;95230.44;;;5.76;44.76
22257;BME280;11297;42.686;23.374;2023-03-13T01:02:41;95233.50;;;5.78;44.67
22257;BME280;11297;42.686;23.374;2023-03-13T01:05:07;95246.88;;;5.85;44.76
22257;BME280;11297;42.686;23.374;2023-03-13T01:07:32;95249.16;;;5.91;45.16
22257;BME280;11297;42.686;23.374;2023-03-13T01:09:58;95250.16;;;6.00;44.39
22257;BME280;11297;42.686;23.374;2023-03-13T01:12:23;95248.34;;;6.06;44.31
22257;BME280;11297;42.686;23.374;2023-03-13T01:14:49;95249.38;;;6.10;44.27
22257;BME280;11297;42.686;23.374;2023-03-13T01:17:15;95234.69;;;6.05;43.51
22257;BME280;11297;42.686;23.374;2023-03-13T01:19:40;95249.81;;;6.17;44.18
22257;BME280;11297;42.686;23.374;2023-03-13T01:22:06;95250.09;;;6.15;43.90
22257;BME280;11297;42.686;23.374;2023-03-13T01:24:35;95230.78;;;6.13;43.78
22257;BME280;11297;42.686;23.374;2023-03-13T01:27:00;95245.69;;;6.20;44.08
22257;BME280;11297;42.686;23.374;2023-03-13T01:29:26;95240.53;;;6.20;44.21
22257;BME280;11297;42.686;23.374;2023-03-13T01:31:51;95250.31;;;6.23;44.02
22257;BME280;11297;42.686;23.374;2023-03-13T01:34:16;95246.72;;;6.24;43.49
22257;BME280;11297;42.686;23.374;2023-03-13T01:36:42;95258.31;;;6.22;43.92
22257;BME280;11297;42.686;23.374;2023-03-13T01:39:08;95259.34;;;6.21;44.25
22257;BME280;11297;42.686;23.374;2023-03-13T01:41:33;95261.00;;;6.02;45.08
22257;BME280;11297;42.686;23.374;2023-03-13T01:43:59;95263.34;;;5.94;44.78
22257;BME280;11297;42.686;23.374;2023-03-13T01:46:26;95265.94;;;5.84;45.14
22257;BME280;11297;42.686;23.374;2023-03-13T01:54:17;95272.16;;;5.83;45.64
22257;BME280;11297;42.686;23.374;2023-03-13T01:56:50;95271.63;;;5.81;46.05
22257;BME280;11297;42.686;23.374;2023-03-13T01:59:21;95273.44;;;5.80;45.51
22257;BME280;11297;42.686;23.374;2023-03-13T02:01:49;95268.31;;;5.75;45.88
22257;BME280;11297;42.686;23.374;2023-03-13T02:04:18;95268.28;;;5.70;46.39
22257;BME280;11297;42.686;23.374;2023-03-13T02:06:46;95277.06;;;5.69;46.77
22257;BME280;11297;42.686;23.374;2023-03-13T02:09:17;95273.75;;;5.59;47.09
22257;BME280;11297;42.686;23.374;2023-03-13T02:11:51;95273.75;;;5.54;47.25
22257;BME280;11297;42.686;23.374;2023-03-13T02:14:19;95282.25;;;5.55;47.38
22257;BME280;11297;42.686;23.374;2023-03-13T02:16:45;95279.94;;;5.48;47.24
22257;BME280;11297;42.686;23.374;2023-03-13T02:19:45;95275.56;;;5.44;47.92
22257;BME280;11297;42.686;23.374;2023-03-13T02:28:22;95289.22;;;5.49;47.94
22257;BME280;11297;42.686;23.374;2023-03-13T02:30:50;95289.22;;;5.49;48.08
22257;BME280;11297;42.686;23.374;2023-03-13T02:33:19;95290.75;;;5.45;48.16
22257;BME280;11297;42.686;23.374;2023-03-13T02:35:46;95298.47;;;5.45;48.24
22257;BME280;11297;42.686;23.374;2023-03-13T02:38:17;95293.88;;;5.37;48.42
22257;BME280;11297;42.686;23.374;2023-03-13T02:40:45;95309.03;;;5.44;48.20
22257;BME280;11297;42.686;23.374;2023-03-13T02:43:29;95321.13;;;5.48;48.62
22257;BME280;11297;42.686;23.374;2023-03-13T02:46:02;95328.34;;;5.51;48.30
22257;BME280;11297;42.686;23.374;2023-03-13T02:48:34;95331.44;;;5.48;48.60
22257;BME280;11297;42.686;23.374;2023-03-13T02:51:02;95332.22;;;5.44;48.72
22257;BME280;11297;42.686;23.374;2023-03-13T02:53:29;95339.69;;;5.40;48.34
22257;BME280;11297;42.686;23.374;2023-03-13T02:55:55;95303.16;;;5.14;48.44
22257;BME280;11297;42.686;23.374;2023-03-13T02:58:22;95339.19;;;5.33;48.11
22257;BME280;11297;42.686;23.374;2023-03-13T03:00:48;95346.16;;;5.33;47.95
22257;BME280;11297;42.686;23.374;2023-03-13T03:03:13;95340.75;;;5.34;47.79
22257;BME280;11297;42.686;23.374;2023-03-13T03:05:39;95326.56;;;5.32;47.77
22257;BME280;11297;42.686;23.374;2023-03-13T03:08:04;95335.84;;;5.38;47.54
22257;BME280;11297;42.686;23.374;2023-03-13T03:10:30;95330.44;;;5.34;48.13
22257;BME280;11297;42.686;23.374;2023-03-13T03:12:55;95330.69;;;5.38;48.11
22257;BME280;11297;42.686;23.374;2023-03-13T03:15:20;95301.59;;;5.22;47.85
22257;BME280;11297;42.686;23.374;2023-03-13T03:17:46;95339.44;;;5.47;47.37
22257;BME280;11297;42.686;23.374;2023-03-13T03:20:12;95356.94;;;5.50;47.74
22257;BME280;11297;42.686;23.374;2023-03-13T03:22:38;95355.91;;;5.51;47.06
22257;BME280;11297;42.686;23.374;2023-03-13T03:25:05;95354.38;;;5.50;47.67
22257;BME280;11297;42.686;23.374;2023-03-13T03:27:31;95372.16;;;5.56;47.26
22257;BME280;11297;42.686;23.374;2023-03-13T03:29:56;95377.31;;;5.56;47.33
22257;BME280;11297;42.686;23.374;2023-03-13T03:32:22;95368.81;;;5.51;47.45
22257;BME280;11297;42.686;23.374;2023-03-13T03:34:47;95372.66;;;5.58;47.31
22257;BME280;11297;42.686;23.374;2023-03-13T03:37:12;95381.94;;;5.54;47.43
22257;BME280;11297;42.686;23.374;2023-03-13T03:39:38;95369.56;;;5.51;47.42
22257;BME280;11297;42.686;23.374;2023-03-13T03:42:03;95374.72;;;5.46;47.26
22257;BME280;11297;42.686;23.374;2023-03-13T03:44:29;95385.81;;;5.37;47.97
22257;BME280;11297;42.686;23.374;2023-03-13T03:46:54;95384.00;;;5.32;47.62
22257;BME280;11297;42.686;23.374;2023-03-13T03:49:20;95397.38;;;5.34;47.80
22257;BME280;11297;42.686;23.374;2023-03-13T03:51:45;95407.94;;;5.28;47.99
22257;BME280;11297;42.686;23.374;2023-03-13T03:54:10;95411.03;;;5.30;47.69
22257;BME280;11297;42.686;23.374;2023-03-13T03:56:36;95402.78;;;5.23;48.56
22257;BME280;11297;42.686;23.374;2023-03-13T03:59:01;95404.59;;;5.22;48.61
22257;BME280;11297;42.686;23.374;2023-03-13T04:01:27;95404.06;;;5.16;48.31
22257;BME280;11297;42.686;23.374;2023-03-13T04:03:52;95413.34;;;5.21;48.07
22257;BME280;11297;42.686;23.374;2023-03-13T04:06:17;95415.13;;;5.21;48.45
22257;BME280;11297;42.686;23.374;2023-03-13T04:08:43;95421.06;;;5.21;48.30
22257;BME280;11297;42.686;23.374;2023-03-13T04:11:08;95418.72;;;5.20;47.82
22257;BME280;11297;42.686;23.374;2023-03-13T04:13:34;95427.25;;;5.25;47.68
22257;BME280;11297;42.686;23.374;2023-03-13T04:15:59;95436.78;;;5.30;47.71
22257;BME280;11297;42.686;23.374;2023-03-13T04:18:24;95436.53;;;5.26;47.78
22257;BME280;11297;42.686;23.374;2023-03-13T04:20:50;95436.25;;;5.18;48.19
22257;BME280;11297;42.686;23.374;2023-03-13T04:23:15;95439.34;;;5.10;48.52
22257;BME280;11297;42.686;23.374;2023-03-13T04:25:40;95450.13;;;5.12;48.34
22257;BME280;11297;42.686;23.374;2023-03-13T04:28:06;95445.00;;;5.07;48.02
22257;BME280;11297;42.686;23.374;2023-03-13T04:30:31;95448.06;;;5.04;48.19
22257;BME280;11297;42.686;23.374;2023-03-13T04:32:56;95449.63;;;5.10;48.25
22257;BME280;11297;42.686;23.374;2023-03-13T04:35:22;95443.44;;;5.01;48.56
22257;BME280;11297;42.686;23.374;2023-03-13T04:37:47;95460.69;;;5.11;48.49
22257;BME280;11297;42.686;23.374;2023-03-13T04:40:13;95473.31;;;5.12;48.82
22257;BME280;11297;42.686;23.374;2023-03-13T04:42:39;95472.03;;;5.15;48.48
22257;BME280;11297;42.686;23.374;2023-03-13T04:45:06;95480.84;;;5.48;60.80
22257;BME280;11297;42.686;23.374;2023-03-13T04:47:31;95461.47;;;5.26;50.65
22257;BME280;11297;42.686;23.374;2023-03-13T04:49:57;95477.47;;;5.38;49.34
22257;BME280;11297;42.686;23.374;2023-03-13T04:52:22;95480.84;;;5.38;49.12
22257;BME280;11297;42.686;23.374;2023-03-13T04:54:48;95490.34;;;5.38;48.95
22257;BME280;11297;42.686;23.374;2023-03-13T04:57:15;95485.19;;;5.38;49.57
22257;BME280;11297;42.686;23.374;2023-03-13T04:59:41;95479.03;;;5.44;49.42
22257;BME280;11297;42.686;23.374;2023-03-13T05:02:09;95489.84;;;5.56;48.97
22257;BME280;11297;42.686;23.374;2023-03-13T05:04:36;95489.84;;;5.56;48.85
22257;BME280;11297;42.686;23.374;2023-03-13T05:07:01;95485.75;;;5.45;49.29
22257;BME280;11297;42.686;23.374;2023-03-13T05:09:26;95488.81;;;5.37;49.97
22257;BME280;11297;42.686;23.374;2023-03-13T05:11:52;95485.22;;;5.53;49.31
22257;BME280;11297;42.686;23.374;2023-03-13T05:14:17;95475.44;;;5.60;48.56
22257;BME280;11297;42.686;23.374;2023-03-13T05:16:43;95495.28;;;5.54;49.10
22257;BME280;11297;42.686;23.374;2023-03-13T05:19:09;95507.91;;;5.56;49.25
22257;BME280;11297;42.686;23.374;2023-03-13T05:21:34;95502.22;;;5.54;49.50
22257;BME280;11297;42.686;23.374;2023-03-13T05:23:59;95510.47;;;5.51;49.63
22257;BME280;11297;42.686;23.374;2023-03-13T05:26:25;95509.47;;;5.71;49.64
22257;BME280;11297;42.686;23.374;2023-03-13T05:28:50;95517.19;;;5.71;49.45
22257;BME280;11297;42.686;23.374;2023-03-13T05:31:16;95518.28;;;6.00;48.47
22257;BME280;11297;42.686;23.374;2023-03-13T05:33:41;95518.03;;;6.12;47.18
22257;BME280;11297;42.686;23.374;2023-03-13T05:36:07;95525.31;;;8.59;85.27
22257;BME280;11297;42.686;23.374;2023-03-13T05:38:32;95525.78;;;10.41;96.11
22257;BME280;11297;42.686;23.374;2023-03-13T05:40:57;95527.66;;;11.74;91.32
22257;BME280;11297;42.686;23.374;2023-03-13T05:43:23;95517.88;;;12.89;82.14
22257;BME280;11297;42.686;23.374;2023-03-13T05:45:48;95514.63;;;14.11;76.30
22257;BME280;11297;42.686;23.374;2023-03-13T05:48:13;95519.16;;;14.56;65.87
22257;BME280;11297;42.686;23.374;2023-03-13T05:50:39;95527.97;;;15.05;55.86
22257;BME280;11297;42.686;23.374;2023-03-13T05:53:04;95526.09;;;15.72;58.53
22257;BME280;11297;42.686;23.374;2023-03-13T05:55:29;95520.72;;;15.39;39.96
22257;BME280;11297;42.686;23.374;2023-03-13T05:57:55;95529.78;;;15.71;47.42
22257;BME280;11297;42.686;23.374;2023-03-13T06:00:20;95529.59;;;16.25;51.96
22257;BME280;11297;42.686;23.374;2023-03-13T06:02:46;95518.66;;;15.74;33.00
22257;BME280;11297;42.686;23.374;2023-03-13T06:05:12;95528.72;;;14.52;32.77
22257;BME280;11297;42.686;23.374;2023-03-13T06:07:37;95525.91;;;13.09;34.22
22257;BME280;11297;42.686;23.374;2023-03-13T06:10:03;95538.47;;;12.25;35.72
22257;BME280;11297;42.686;23.374;2023-03-13T06:12:29;95535.63;;;11.78;36.55
22257;BME280;11297;42.686;23.374;2023-03-13T06:14:54;95538.31;;;10.52;38.69
22257;BME280;11297;42.686;23.374;2023-03-13T06:17:20;95540.22;;;10.15;38.81
22257;BME280;11297;42.686;23.374;2023-03-13T06:19:45;95530.22;;;10.09;39.40
22257;BME280;11297;42.686;23.374;2023-03-13T06:22:11;95540.91;;;9.66;40.42
22257;BME280;11297;42.686;23.374;2023-03-13T06:24:36;95540.97;;;9.43;40.92
22257;BME280;11297;42.686;23.374;2023-03-13T06:27:02;95546.50;;;9.36;40.19
22257;BME280;11297;42.686;23.374;2023-03-13T06:29:27;95554.69;;;9.43;40.76
22257;BME280;11297;42.686;23.374;2023-03-13T06:31:53;95546.97;;;9.15;40.84
22257;BME280;11297;42.686;23.374;2023-03-13T06:34:18;95544.88;;;9.40;40.18
22257;BME280;11297;42.686;23.374;2023-03-13T06:36:44;95543.38;;;9.34;41.00
22257;BME280;11297;42.686;23.374;2023-03-13T06:39:10;95525.75;;;9.54;39.51
22257;BME280;11297;42.686;23.374;2023-03-13T06:41:36;95517.56;;;9.84;39.50
22257;BME280;11297;42.686;23.374;2023-03-13T06:44:01;95520.63;;;10.23;39.52
22257;BME280;11297;42.686;23.374;2023-03-13T06:46:27;95524.97;;;10.27;39.14
22257;BME280;11297;42.686;23.374;2023-03-13T06:48:52;95517.56;;;10.34;38.97
22257;BME280;11297;42.686;23.374;2023-03-13T06:51:20;95530.25;;;10.67;38.40
22257;BME280;11297;42.686;23.374;2023-03-13T06:53:47;95534.22;;;10.92;37.96
22257;BME280;11297;42.686;23.374;2023-03-13T06:56:12;95530.28;;;10.81;38.22
22257;BME280;11297;42.686;23.374;2023-03-13T06:58:38;95535.75;;;10.66;38.41
22257;BME280;11297;42.686;23.374;2023-03-13T07:01:08;95521.28;;;10.47;38.44
22257;BME280;11297;42.686;23.374;2023-03-13T07:03:34;95526.66;;;10.50;38.26
22257;BME280;11297;42.686;23.374;2023-03-13T07:06:00;95520.75;;;10.76;38.10
22257;BME280;11297;42.686;23.374;2023-03-13T07:08:26;95519.09;;;10.80;39.16
22257;BME280;11297;42.686;23.374;2023-03-13T07:10:53;95526.03;;;10.98;38.05
22257;BME280;11297;42.686;23.374;2023-03-13T07:13:21;95525.09;;;11.21;37.64
22257;BME280;11297;42.686;23.374;2023-03-13T07:15:47;95525.56;;;11.36;37.85
22257;BME280;11297;42.686;23.374;2023-03-13T07:18:13;95527.31;;;11.14;37.96
22257;BME280;11297;42.686;23.374;2023-03-13T07:20:39;95522.28;;;11.17;37.57
22257;BME280;11297;42.686;23.374;2023-03-13T07:23:04;95508.91;;;10.97;37.69
22257;BME280;11297;42.686;23.374;2023-03-13T07:25:29;95513.22;;;11.42;37.23
22257;BME280;11297;42.686;23.374;2023-03-13T07:27:55;95521.31;;;11.67;36.63
22257;BME280;11297;42.686;23.374;2023-03-13T07:30:21;95513.63;;;11.84;36.27
22257;BME280;11297;42.686;23.374;2023-03-13T07:32:46;95522.91;;;11.76;35.41
22257;BME280;11297;42.686;23.374;2023-03-13T07:35:12;95517.88;;;11.80;35.71
22257;BME280;11297;42.686;23.374;2023-03-13T07:37:37;95515.59;;;11.65;35.73
22257;BME280;11297;42.686;23.374;2023-03-13T07:40:03;95505.88;;;11.70;35.49
22257;BME280;11297;42.686;23.374;2023-03-13T07:42:29;95527.19;;;11.59;36.25
22257;BME280;11297;42.686;23.374;2023-03-13T07:44:54;95517.19;;;11.88;35.60
22257;BME280;11297;42.686;23.374;2023-03-13T07:47:19;95522.06;;;12.02;35.22
22257;BME280;11297;42.686;23.374;2023-03-13T07:49:45;95520.41;;;12.28;34.95
22257;BME280;11297;42.686;23.374;2023-03-13T07:52:11;95524.19;;;12.22;35.02
22257;BME280;11297;42.686;23.374;2023-03-13T07:54:36;95518.28;;;12.08;34.95
22257;BME280;11297;42.686;23.374;2023-03-13T07:57:02;95520.63;;;12.40;35.00
22257;BME280;11297;42.686;23.374;2023-03-13T07:59:27;95512.44;;;12.55;34.46
22257;BME280;11297;42.686;23.374;2023-03-13T08:01:53;95506.91;;;13.08;33.72
22257;BME280;11297;42.686;23.374;2023-03-13T08:04:18;95497.63;;;12.94;33.65
22257;BME280;11297;42.686;23.374;2023-03-13T08:06:44;95501.53;;;13.05;34.03
22257;BME280;11297;42.686;23.374;2023-03-13T08:09:09;95496.38;;;12.83;34.20
22257;BME280;11297;42.686;23.374;2023-03-13T08:11:37;95484.44;;;12.60;34.55
22257;BME280;11297;42.686;23.374;2023-03-13T08:14:04;95494.47;;;12.75;34.30
22257;BME280;11297;42.686;23.374;2023-03-13T08:16:31;95489.94;;;12.59;34.21
22257;BME280;11297;42.686;23.374;2023-03-13T08:18:59;95494.56;;;12.62;34.15
22257;BME280;11297;42.686;23.374;2023-03-13T08:21:29;95492.84;;;12.88;33.70
22257;BME280;11297;42.686;23.374;2023-03-13T08:23:57;95485.78;;;12.88;33.50
22257;BME280;11297;42.686;23.374;2023-03-13T08:26:25;95499.63;;;12.97;33.39
22257;BME280;11297;42.686;23.374;2023-03-13T08:28:53;95491.16;;;12.83;33.61
22257;BME280;11297;42.686;23.374;2023-03-13T08:31:24;95491.00;;;12.88;33.18
22257;BME280;11297;42.686;23.374;2023-03-13T08:33:50;95502.16;;;13.19;32.94
22257;BME280;11297;42.686;23.374;2023-03-13T08:38:45;95510.94;;;13.31;33.01
22257;BME280;11297;42.686;23.374;2023-03-13T08:41:16;95502.88;;;13.58;32.24
22257;BME280;11297;42.686;23.374;2023-03-13T08:43:42;95499.63;;;13.44;32.13
22257;BME280;11297;42.686;23.374;2023-03-13T08:46:08;95497.47;;;13.38;32.67
22257;BME280;11297;42.686;23.374;2023-03-13T08:48:33;95500.00;;;13.76;32.35
22257;BME280;11297;42.686;23.374;2023-03-13T08:53:32;95491.81;;;14.45;31.53
22257;BME280;11297;42.686;23.374;2023-03-13T08:55:57;95482.16;;;14.82;30.96
22257;BME280;11297;42.686;23.374;2023-03-13T08:58:23;95487.28;;;14.71;30.72
22257;BME280;11297;42.686;23.374;2023-03-13T09:00:48;95472.53;;;15.03;30.57
22257;BME280;11297;42.686;23.374;2023-03-13T09:03:14;95482.78;;;15.17;30.22
22257;BME280;11297;42.686;23.374;2023-03-13T09:05:39;95474.66;;;15.18;30.18
22257;BME280;11297;42.686;23.374;2023-03-13T09:08:05;95482.25;;;15.03;30.18
22257;BME280;11297;42.686;23.374;2023-03-13T09:10:34;95482.50;;;15.18;30.08
22257;BME280;11297;42.686;23.374;2023-03-13T09:13:00;95485.81;;;14.98;30.35
22257;BME280;11297;42.686;23.374;2023-03-13T09:15:25;95480.06;;;14.68;30.62
22257;BME280;11297;42.686;23.374;2023-03-13T09:17:51;95475.69;;;14.88;30.01
22257;BME280;11297;42.686;23.374;2023-03-13T09:20:16;95479.78;;;15.64;28.88
22257;BME280;11297;42.686;23.374;2023-03-13T09:22:43;95463.16;;;15.60;28.56
22257;BME280;11297;42.686;23.374;2023-03-13T09:25:09;95465.88;;;15.63;29.98
22257;BME280;11297;42.686;23.374;2023-03-13T09:27:35;95469.06;;;15.28;30.12
22257;BME280;11297;42.686;23.374;2023-03-13T09:30:00;95471.38;;;14.92;30.50
22257;BME280;11297;42.686;23.374;2023-03-13T09:32:26;95474.81;;;14.76;30.10
22257;BME280;11297;42.686;23.374;2023-03-13T09:34:51;95475.00;;;14.63;30.53
22257;BME280;11297;42.686;23.374;2023-03-13T09:37:16;95485.72;;;14.78;30.65
22257;BME280;11297;42.686;23.374;2023-03-13T09:39:42;95459.34;;;14.91;30.19
22257;BME280;11297;42.686;23.374;2023-03-13T09:42:14;95477.78;;;15.61;29.43
22257;BME280;11297;42.686;23.374;2023-03-13T09:45:05;95475.78;;;15.37;30.19
22257;BME280;11297;42.686;23.374;2023-03-13T09:47:41;95465.28;;;15.17;30.07
22257;BME280;11297;42.686;23.374;2023-03-13T09:50:14;95458.06;;;15.06;30.22
22257;BME280;11297;42.686;23.374;2023-03-13T09:52:43;95469.47;;;15.01;30.20
22257;BME280;11297;42.686;23.374;2023-03-13T09:55:23;95471.53;;;15.53;30.55
22257;BME280;11297;42.686;23.374;2023-03-13T09:57:52;95468.19;;;15.44;29.73
22257;BME280;11297;42.686;23.374;2023-03-13T10:00:26;95464.13;;;14.98;29.93
22257;BME280;11297;42.686;23.374;2023-03-13T10:03:11;95450.81;;;15.11;30.90
22257;BME280;11297;42.686;23.374;2023-03-13T10:05:44;95462.84;;;15.81;29.42
22257;BME280;11297;42.686;23.374;2023-03-13T10:08:23;95461.03;;;16.14;29.05
22257;BME280;11297;42.686;23.374;2023-03-13T10:11:06;95456.59;;;16.59;28.34
22257;BME280;11297;42.686;23.374;2023-03-13T10:13:43;95446.97;;;16.63;28.08
22257;BME280;11297;42.686;23.374;2023-03-13T10:16:16;95444.91;;;16.68;28.57
22257;BME280;11297;42.686;23.374;2023-03-13T10:18:48;95434.63;;;16.51;29.32
22257;BME280;11297;42.686;23.374;2023-03-13T10:21:20;95429.47;;;16.55;28.60
22257;BME280;11297;42.686;23.374;2023-03-13T10:26:32;95419.34;;;15.69;30.18
22257;BME280;11297;42.686;23.374;2023-03-13T10:31:43;95405.97;;;15.82;30.17
22257;BME280;11297;42.686;23.374;2023-03-13T10:34:13;95409.56;;;15.57;30.18
22257;BME280;11297;42.686;23.374;2023-03-13T10:36:47;95389.56;;;15.53;29.80
22257;BME280;11297;42.686;23.374;2023-03-13T10:39:18;95417.19;;;16.23;28.95
22257;BME280;11297;42.686;23.374;2023-03-13T10:41:44;95404.91;;;16.59;28.90
22257;BME280;11297;42.686;23.374;2023-03-13T10:44:22;95389.72;;;16.76;28.24
22257;BME280;11297;42.686;23.374;2023-03-13T10:46:49;95383.91;;;16.71;28.19
22257;BME280;11297;42.686;23.374;2023-03-13T10:49:19;95389.59;;;16.97;28.07
22257;BME280;11297;42.686;23.374;2023-03-13T10:51:51;95385.97;;;16.77;28.00
22257;BME280;11297;42.686;23.374;2023-03-13T10:54:31;95384.56;;;16.80;28.31
22257;BME280;11297;42.686;23.374;2023-03-13T10:59:44;95363.03;;;16.07;29.08
22257;BME280;11297;42.686;23.374;2023-03-13T11:04:55;95353.25;;;15.83;29.67
22257;BME280;11297;42.686;23.374;2023-03-13T11:07:31;95364.38;;;16.13;29.12
22257;BME280;11297;42.686;23.374;2023-03-13T11:10:16;95360.75;;;16.05;28.96
22257;BME280;11297;42.686;23.374;2023-03-13T11:12:47;95342.66;;;15.80;41.17
22257;BME280;11297;42.686;23.374;2023-03-13T11:15:41;95363.66;;;18.40;67.87
22257;BME280;11297;42.686;23.374;2023-03-13T11:18:16;95354.44;;;18.95;53.99
22257;BME280;11297;42.686;23.374;2023-03-13T11:20:45;95347.75;;;18.82;39.02
22257;BME280;11297;42.686;23.374;2023-03-13T11:23:18;95348.81;;;19.46;55.68
22257;BME280;11297;42.686;23.374;2023-03-13T11:28:57;95339.91;;;20.33;36.08
22257;BME280;11297;42.686;23.374;2023-03-13T11:31:44;95292.56;;;19.20;30.98
22257;BME280;11297;42.686;23.374;2023-03-13T11:34:21;95323.56;;;20.46;46.86
22257;BME280;11297;42.686;23.374;2023-03-13T11:37:11;95332.78;;;20.78;32.53
22257;BME280;11297;42.686;23.374;2023-03-13T11:40:05;95329.41;;;21.61;40.87
22257;BME280;11297;42.686;23.374;2023-03-13T11:45:31;95316.41;;;20.24;34.32
22257;BME280;11297;42.686;23.374;2023-03-13T11:51:19;95286.94;;;21.18;37.17
22257;BME280;11297;42.686;23.374;2023-03-13T11:56:46;95283.53;;;22.16;36.44
22257;BME280;11297;42.686;23.374;2023-03-13T12:02:27;95279.72;;;22.13;33.92
22257;BME280;11297;42.686;23.374;2023-03-13T12:05:00;95269.56;;;21.83;31.44
22257;BME280;11297;42.686;23.374;2023-03-13T12:13:15;95255.59;;;22.68;34.55
22257;BME280;11297;42.686;23.374;2023-03-13T12:15:46;95245.09;;;22.86;32.87
22257;BME280;11297;42.686;23.374;2023-03-13T12:21:03;95243.28;;;22.00;30.30
22257;BME280;11297;42.686;23.374;2023-03-13T12:23:35;95247.50;;;22.05;33.72
22257;BME280;11297;42.686;23.374;2023-03-13T12:26:09;95129.53;;;21.60;33.33
22257;BME280;11297;42.686;23.374;2023-03-13T12:28:42;95227.06;;;22.05;23.67
22257;BME280;11297;42.686;23.374;2023-03-13T12:34:21;95238.81;;;19.84;24.72
22257;BME280;11297;42.686;23.374;2023-03-13T12:39:38;95223.84;;;17.80;27.02
22257;BME280;11297;42.686;23.374;2023-03-13T12:44:48;95229.53;;;16.73;28.35
22257;BME280;11297;42.686;23.374;2023-03-13T12:52:48;95234.75;;;15.66;29.84
22257;BME280;11297;42.686;23.374;2023-03-13T13:00:34;95238.78;;;14.79;30.54
22257;BME280;11297;42.686;23.374;2023-03-13T13:08:36;95224.50;;;14.56;31.08
22257;BME280;11297;42.686;23.374;2023-03-13T13:16:53;95240.56;;;14.87;30.87
22257;BME280;11297;42.686;23.374;2023-03-13T13:24:59;95226.34;;;14.96;31.67
22257;BME280;11297;42.686;23.374;2023-03-13T13:27:48;95227.22;;;15.00;30.69
22257;BME280;11297;42.686;23.374;2023-03-13T13:32:55;95222.13;;;15.04;30.55
22257;BME280;11297;42.686;23.374;2023-03-13T13:37:48;95213.72;;;15.19;30.76
22257;BME280;11297;42.686;23.374;2023-03-13T13:40:27;95209.75;;;14.92;31.15
22257;BME280;11297;42.686;23.374;2023-03-13T13:42:59;95211.94;;;14.90;31.61
22257;BME280;11297;42.686;23.374;2023-03-13T13:45:34;95211.28;;;14.93;31.24
22257;BME280;11297;42.686;23.374;2023-03-13T13:48:42;95214.88;;;14.89;30.96
22257;BME280;11297;42.686;23.374;2023-03-13T13:56:51;95213.06;;;15.01;30.49
22257;BME280;11297;42.686;23.374;2023-03-13T14:01:48;95200.88;;;15.05;31.17
22257;BME280;11297;42.686;23.374;2023-03-13T14:04:47;95191.94;;;15.06;30.53
22257;BME280;11297;42.686;23.374;2023-03-13T14:10:14;95184.31;;;15.13;30.88
22257;BME280;11297;42.686;23.374;2023-03-13T14:12:55;95205.69;;;15.15;30.60
22257;BME280;11297;42.686;23.374;2023-03-13T14:15:26;95197.72;;;15.12;30.97
22257;BME280;11297;42.686;23.374;2023-03-13T14:20:55;95203.94;;;15.07;30.74
22257;BME280;11297;42.686;23.374;2023-03-13T14:25:54;95197.84;;;15.15;30.70
22257;BME280;11297;42.686;23.374;2023-03-13T14:28:26;95192.47;;;15.20;30.46
22257;BME280;11297;42.686;23.374;2023-03-13T14:30:54;95196.09;;;15.07;30.42
22257;BME280;11297;42.686;23.374;2023-03-13T14:33:21;95181.88;;;14.96;31.17
22257;BME280;11297;42.686;23.374;2023-03-13T14:35:47;95190.97;;;14.79;30.89
22257;BME280;11297;42.686;23.374;2023-03-13T14:40:42;95196.63;;;14.60;31.62
22257;BME280;11297;42.686;23.374;2023-03-13T14:45:43;95178.25;;;14.69;31.23
22257;BME280;11297;42.686;23.374;2023-03-13T14:48:30;95183.97;;;14.82;31.26
22257;BME280;11297;42.686;23.374;2023-03-13T14:51:02;95185.41;;;14.60;31.49
22257;BME280;11297;42.686;23.374;2023-03-13T14:53:32;95183.38;;;14.65;31.20
22257;BME280;11297;42.686;23.374;2023-03-13T14:56:14;95186.16;;;14.81;31.01
22257;BME280;11297;42.686;23.374;2023-03-13T14:58:40;95169.56;;;14.77;31.02